createdAt,value
2023-02-19T00:00:32.556Z,5.10
2023-02-19T00:03:42.121Z,4.40
2023-02-19T00:06:51.499Z,4.20
2023-02-19T00:10:01.714Z,5.10
2023-02-19T00:13:09.923Z,4.10
2023-02-19T00:16:22.907Z,3.60
2023-02-19T00:19:36.096Z,4.50
2023-02-19T00:22:44.519Z,3.80
2023-02-19T00:26:03.203Z,4.00
2023-02-19T00:29:22.901Z,4.70
2023-02-19T00:32:31.200Z,3.30
2023-02-19T00:35:53.976Z,3.90
2023-02-19T00:39:02.190Z,3.90
2023-02-19T00:42:12.505Z,4.00
2023-02-19T00:45:22.509Z,4.50
2023-02-19T00:48:36.144Z,4.40
2023-02-19T00:52:19.432Z,4.60
2023-02-19T00:55:29.401Z,4.90
2023-02-19T01:01:46.740Z,3.80
2023-02-19T01:04:57.433Z,4.90
2023-02-19T01:11:18.149Z,4.10
2023-02-19T01:14:26.003Z,3.80
2023-02-19T01:17:34.287Z,4.50
2023-02-19T01:20:45.922Z,4.10
2023-02-19T01:23:55.769Z,4.80
2023-02-19T01:27:03.688Z,4.80
2023-02-19T01:30:13.950Z,3.90
2023-02-19T01:33:21.937Z,3.00
2023-02-19T01:36:33.724Z,3.00
2023-02-19T01:39:42.018Z,3.40
2023-02-19T01:42:52.192Z,4.20
2023-02-19T01:46:02.490Z,4.00
2023-02-19T01:49:17.658Z,3.70
2023-02-19T01:52:32.053Z,3.60
2023-02-19T01:55:41.043Z,3.90
2023-02-19T01:58:50.189Z,4.90
2023-02-19T02:01:58.344Z,2.90
2023-02-19T02:05:10.504Z,3.90
2023-02-19T02:08:50.053Z,3.60
2023-02-19T02:11:58.225Z,3.80
2023-02-19T02:15:08.457Z,3.10
2023-02-19T02:18:29.912Z,3.50
2023-02-19T02:22:13.096Z,3.70
2023-02-19T02:26:11.509Z,3.80
2023-02-19T02:30:05.402Z,3.80
2023-02-19T02:33:28.620Z,3.80
2023-02-19T02:36:42.880Z,3.50
2023-02-19T02:39:52.578Z,4.60
2023-02-19T02:43:03.087Z,4.50
2023-02-19T02:46:17.959Z,3.10
2023-02-19T02:49:28.920Z,4.20
2023-02-19T02:52:57.628Z,2.90
2023-02-19T02:56:07.498Z,3.80
2023-02-19T03:02:38.320Z,4.40
2023-02-19T03:05:53.602Z,5.00
2023-02-19T03:09:17.680Z,3.70
2023-02-19T03:12:46.509Z,3.10
2023-02-19T03:16:21.040Z,3.20
2023-02-19T03:19:36.792Z,3.40
2023-02-19T03:22:48.935Z,3.50
2023-02-19T03:26:06.743Z,3.60
2023-02-19T03:29:26.335Z,3.40
2023-02-19T03:32:41.494Z,3.30
2023-02-19T03:35:54.910Z,3.60
2023-02-19T03:39:23.101Z,3.50
2023-02-19T03:42:46.276Z,3.40
2023-02-19T03:46:10.439Z,3.50
2023-02-19T03:49:27.318Z,3.00
2023-02-19T03:52:44.411Z,3.10
2023-02-19T03:56:09.407Z,3.70
2023-02-19T03:59:30.641Z,4.20
2023-02-19T04:02:44.691Z,4.70
2023-02-19T04:06:01.211Z,5.60
2023-02-19T04:09:15.981Z,6.70
2023-02-19T04:12:24.788Z,4.90
2023-02-19T04:15:37.986Z,4.10
2023-02-19T04:18:51.371Z,3.50
2023-02-19T04:22:02.936Z,4.10
2023-02-19T04:25:14.153Z,3.80
2023-02-19T04:28:23.096Z,5.70
2023-02-19T04:31:36.517Z,3.90
2023-02-19T04:34:45.083Z,5.00
2023-02-19T04:37:53.102Z,3.40
2023-02-19T04:41:01.850Z,4.60
2023-02-19T04:44:10.177Z,4.20
2023-02-19T04:47:19.012Z,4.10
2023-02-19T04:50:27.402Z,4.80
2023-02-19T04:53:35.476Z,4.30
2023-02-19T04:56:43.998Z,3.90
2023-02-19T04:59:52.733Z,4.00
2023-02-19T05:03:00.790Z,3.90
2023-02-19T05:06:12.146Z,4.50
2023-02-19T05:09:20.149Z,4.50
2023-02-19T05:12:28.409Z,3.90
2023-02-19T05:15:36.587Z,5.10
2023-02-19T05:18:46.923Z,4.60
2023-02-19T05:21:55.359Z,5.00
2023-02-19T05:25:03.568Z,5.10
2023-02-19T05:28:21.102Z,5.90
2023-02-19T05:31:31.172Z,5.40
2023-02-19T05:34:39.376Z,4.80
2023-02-19T05:37:48.701Z,5.00
2023-02-19T05:40:56.708Z,5.20
2023-02-19T05:44:04.808Z,5.70
2023-02-19T05:47:14.259Z,5.80
2023-02-19T05:50:22.580Z,5.30
2023-02-19T05:53:31.718Z,5.60
2023-02-19T05:56:42.412Z,5.50
2023-02-19T05:59:50.624Z,5.40
2023-02-19T06:03:00.678Z,5.00
2023-02-19T06:09:19.648Z,5.40
2023-02-19T06:12:28.350Z,4.90
2023-02-19T06:15:37.718Z,4.70
2023-02-19T06:18:45.934Z,4.80
2023-02-19T06:21:56.083Z,6.60
2023-02-19T06:28:11.836Z,5.40
2023-02-19T06:31:21.797Z,5.50
2023-02-19T06:34:30.565Z,5.70
2023-02-19T06:37:39.283Z,5.00
2023-02-19T06:40:47.192Z,5.10
2023-02-19T06:43:55.147Z,4.80
2023-02-19T06:47:05.513Z,4.90
2023-02-19T06:50:13.678Z,4.60
2023-02-19T06:53:22.190Z,4.70
2023-02-19T06:56:33.000Z,4.70
2023-02-19T06:59:41.796Z,4.30
2023-02-19T07:02:50.089Z,4.10
2023-02-19T07:06:00.521Z,4.60
2023-02-19T07:09:11.372Z,4.40
2023-02-19T07:12:20.989Z,4.90
2023-02-19T07:15:30.679Z,4.60
2023-02-19T07:18:39.149Z,5.70
2023-02-19T07:21:47.878Z,7.50
2023-02-19T07:24:56.537Z,10.80
2023-02-19T07:28:09.242Z,5.70
2023-02-19T07:31:19.969Z,5.00
2023-02-19T07:34:31.737Z,4.80
2023-02-19T07:37:47.379Z,4.90
2023-02-19T07:41:01.517Z,4.60
2023-02-19T07:44:13.724Z,6.20
2023-02-19T07:47:45.731Z,6.70
2023-02-19T07:51:01.117Z,4.90
2023-02-19T07:54:14.108Z,4.00
2023-02-19T07:57:23.439Z,3.60
2023-02-19T08:00:33.603Z,4.50
2023-02-19T08:03:42.584Z,4.90
2023-02-19T08:07:19.162Z,4.20
2023-02-19T08:10:46.368Z,5.30
2023-02-19T08:13:55.474Z,6.40
2023-02-19T08:17:04.641Z,4.90
2023-02-19T08:20:15.343Z,5.90
2023-02-19T08:23:24.019Z,6.00
2023-02-19T08:26:32.182Z,4.90
2023-02-19T08:29:40.468Z,4.40
2023-02-19T08:32:48.467Z,6.20
2023-02-19T08:35:56.670Z,5.90
2023-02-19T08:39:04.705Z,8.00
2023-02-19T08:42:13.293Z,10.20
2023-02-19T08:45:29.978Z,11.00
2023-02-19T08:48:38.845Z,10.00
2023-02-19T08:51:46.755Z,11.50
2023-02-19T08:54:55.591Z,12.50
2023-02-19T08:58:06.174Z,13.20
2023-02-19T09:01:18.866Z,13.40
2023-02-19T09:04:27.445Z,12.60
2023-02-19T09:07:41.631Z,15.60
2023-02-19T09:11:22.156Z,13.50
2023-02-19T09:14:32.484Z,14.40
2023-02-19T09:17:43.874Z,15.00
2023-02-19T09:20:52.297Z,14.40
2023-02-19T09:24:00.469Z,18.60
2023-02-19T09:27:10.992Z,14.90
2023-02-19T09:30:19.057Z,14.40
2023-02-19T09:33:27.507Z,13.60
2023-02-19T09:36:35.522Z,14.40
2023-02-19T09:39:43.879Z,15.60
2023-02-19T09:42:53.460Z,13.40
2023-02-19T09:46:12.722Z,13.00
2023-02-19T09:49:27.705Z,12.60
2023-02-19T09:52:43.403Z,13.10
2023-02-19T09:56:00.650Z,11.10
2023-02-19T09:59:21.711Z,11.00
2023-02-19T10:02:32.847Z,10.70
2023-02-19T10:05:43.006Z,10.90
2023-02-19T10:08:54.756Z,11.10
2023-02-19T10:12:04.249Z,9.70
2023-02-19T10:15:22.240Z,10.20
2023-02-19T10:18:40.087Z,10.20
2023-02-19T10:21:50.089Z,10.90
2023-02-19T10:25:00.958Z,11.80
2023-02-19T10:28:15.582Z,12.00
2023-02-19T10:31:26.504Z,10.80
2023-02-19T10:34:35.104Z,10.60
2023-02-19T10:37:51.175Z,11.40
2023-02-19T10:41:15.640Z,11.00
2023-02-19T10:44:29.762Z,10.80
2023-02-19T10:47:58.969Z,11.80
2023-02-19T10:51:13.253Z,11.40
2023-02-19T10:54:31.474Z,12.60
2023-02-19T10:57:39.677Z,10.60
2023-02-19T11:00:47.702Z,8.50
2023-02-19T11:04:18.503Z,10.10
2023-02-19T11:07:29.570Z,8.50
2023-02-19T11:10:47.056Z,9.00
2023-02-19T11:14:06.320Z,7.80
2023-02-19T11:17:30.971Z,7.80
2023-02-19T11:20:58.665Z,8.20
2023-02-19T11:24:24.252Z,6.40
2023-02-19T11:27:33.427Z,8.20
2023-02-19T11:30:44.901Z,9.90
2023-02-19T11:34:04.903Z,7.60
2023-02-19T11:37:19.023Z,7.00
2023-02-19T11:40:42.907Z,5.90
2023-02-19T11:44:22.348Z,4.70
2023-02-19T11:48:09.218Z,6.00
2023-02-19T11:51:43.040Z,5.80
2023-02-19T11:55:01.078Z,6.60
2023-02-19T11:58:51.252Z,6.90
2023-02-19T12:02:11.942Z,6.20
2023-02-19T12:05:42.669Z,6.10
2023-02-19T12:09:32.980Z,6.80
2023-02-19T12:12:58.698Z,6.40
2023-02-19T12:16:32.857Z,6.80
2023-02-19T12:20:14.745Z,6.00
2023-02-19T12:24:11.358Z,6.70
2023-02-19T12:27:39.970Z,7.30
2023-02-19T12:31:26.360Z,6.70
2023-02-19T12:35:08.291Z,5.70
2023-02-19T12:38:34.132Z,6.30
2023-02-19T12:41:59.277Z,5.20
2023-02-19T12:45:21.467Z,3.90
2023-02-19T12:48:43.469Z,6.40
2023-02-19T12:51:57.741Z,8.30
2023-02-19T12:55:27.196Z,6.20
2023-02-19T12:58:47.868Z,4.90
2023-02-19T13:02:06.025Z,7.00
2023-02-19T13:05:53.974Z,6.10
2023-02-19T13:09:09.252Z,5.30
2023-02-19T13:12:25.725Z,6.00
2023-02-19T13:15:41.928Z,6.30
2023-02-19T13:18:55.369Z,9.00
2023-02-19T13:22:38.101Z,8.80
2023-02-19T13:26:23.268Z,5.80
2023-02-19T13:30:04.727Z,12.10
2023-02-19T13:33:36.622Z,4.70
2023-02-19T13:36:45.578Z,1.40
2023-02-19T13:39:56.722Z,3.30
2023-02-19T13:43:08.481Z,5.10
2023-02-19T13:46:25.496Z,4.10
2023-02-19T13:49:53.314Z,5.70
2023-02-19T13:53:02.655Z,5.00
2023-02-19T13:56:44.144Z,6.40
2023-02-19T13:59:53.815Z,3.20
2023-02-19T14:03:40.770Z,3.20
2023-02-19T14:07:47.060Z,2.70
2023-02-19T14:11:04.705Z,1.80
2023-02-19T14:14:38.050Z,2.20
2023-02-19T14:17:47.688Z,1.50
2023-02-19T14:21:19.545Z,2.20
2023-02-19T14:24:28.387Z,1.30
2023-02-19T14:27:36.594Z,1.20
2023-02-19T14:30:53.283Z,1.90
2023-02-19T14:37:25.317Z,2.90
2023-02-19T14:41:13.265Z,3.10
2023-02-19T14:44:27.419Z,4.30
2023-02-19T14:47:40.508Z,3.70
2023-02-19T14:50:56.193Z,4.00
2023-02-19T14:54:16.077Z,3.20
2023-02-19T14:57:31.099Z,4.00
2023-02-19T15:00:41.863Z,4.20
2023-02-19T15:04:01.198Z,3.30
2023-02-19T15:07:16.610Z,4.80
2023-02-19T15:10:25.068Z,4.10
2023-02-19T15:16:45.046Z,5.20
2023-02-19T15:19:54.535Z,5.30
2023-02-19T15:23:07.112Z,4.30
2023-02-19T15:26:28.145Z,4.00
2023-02-19T15:29:36.348Z,4.50
2023-02-19T15:32:52.730Z,3.40
2023-02-19T15:36:04.238Z,3.60
2023-02-19T15:39:22.576Z,4.60
2023-02-19T15:42:33.657Z,3.60
2023-02-19T15:45:48.318Z,4.30
2023-02-19T15:49:12.395Z,3.20
2023-02-19T15:52:50.033Z,3.30
2023-02-19T15:56:08.537Z,3.10
2023-02-19T15:59:30.007Z,4.00
2023-02-19T16:02:39.203Z,4.40
2023-02-19T16:05:48.583Z,3.90
2023-02-19T16:09:08.430Z,4.30
2023-02-19T16:12:28.401Z,3.80
2023-02-19T16:16:17.977Z,4.40
2023-02-19T16:19:45.390Z,3.90
2023-02-19T16:22:58.917Z,2.40
2023-02-19T16:26:09.766Z,5.00
2023-02-19T16:29:27.823Z,5.00
2023-02-19T16:32:39.558Z,2.60
2023-02-19T16:35:48.432Z,4.90
2023-02-19T16:39:24.976Z,3.10
2023-02-19T16:42:34.558Z,4.30
2023-02-19T16:45:46.892Z,4.30
2023-02-19T16:48:55.953Z,5.40
2023-02-19T16:52:07.178Z,5.30
2023-02-19T16:55:18.773Z,7.20
2023-02-19T16:58:26.920Z,5.60
2023-02-19T17:01:35.774Z,4.60
2023-02-19T17:04:44.122Z,3.60
2023-02-19T17:07:52.533Z,3.70
2023-02-19T17:11:02.206Z,4.10
2023-02-19T17:14:10.499Z,3.00
2023-02-19T17:21:04.744Z,4.30
2023-02-19T17:24:14.063Z,2.70
2023-02-19T17:27:23.470Z,2.60
2023-02-19T17:30:34.231Z,3.50
2023-02-19T17:33:42.893Z,2.90
2023-02-19T17:36:52.864Z,4.20
2023-02-19T17:40:00.988Z,2.90
2023-02-19T17:43:10.474Z,4.40
2023-02-19T17:46:22.247Z,2.80
2023-02-19T17:49:30.524Z,4.00
2023-02-19T17:52:38.814Z,3.70
2023-02-19T17:55:47.418Z,4.70
2023-02-19T17:58:56.357Z,5.30
2023-02-19T18:02:06.778Z,9.10
2023-02-19T18:05:15.419Z,7.50
2023-02-19T18:08:23.361Z,5.10
2023-02-19T18:11:31.348Z,7.00
2023-02-19T18:14:39.407Z,7.00
2023-02-19T18:17:48.172Z,5.50
2023-02-19T18:20:57.757Z,4.60
2023-02-19T18:24:06.385Z,5.20
2023-02-19T18:27:15.549Z,5.60
2023-02-19T18:30:24.956Z,5.40
2023-02-19T18:33:34.128Z,6.00
2023-02-19T18:36:45.341Z,6.00
2023-02-19T18:39:53.851Z,6.10
2023-02-19T18:43:11.479Z,5.70
2023-02-19T18:46:22.025Z,6.20
2023-02-19T18:49:32.520Z,5.50
2023-02-19T18:52:40.510Z,5.20
2023-02-19T18:55:49.083Z,3.70
2023-02-19T18:58:57.146Z,5.60
2023-02-19T19:02:07.888Z,3.70
2023-02-19T19:05:17.681Z,4.40
2023-02-19T19:08:27.796Z,5.00
2023-02-19T19:11:37.323Z,5.20
2023-02-19T19:14:45.880Z,5.00
2023-02-19T19:17:55.108Z,4.70
2023-02-19T19:21:04.381Z,5.20
2023-02-19T19:24:13.558Z,4.40
2023-02-19T19:27:23.027Z,4.70
2023-02-19T19:30:33.783Z,4.20
2023-02-19T19:33:41.996Z,4.70
2023-02-19T19:36:50.022Z,5.10
2023-02-19T19:39:58.706Z,5.90
2023-02-19T19:43:08.189Z,5.10
2023-02-19T19:46:20.031Z,6.70
2023-02-19T19:49:29.601Z,5.40
2023-02-19T19:52:40.157Z,4.80
2023-02-19T19:55:48.587Z,5.00
2023-02-19T19:58:57.006Z,5.30
2023-02-19T20:02:06.909Z,4.30
2023-02-19T20:05:16.971Z,4.40
2023-02-19T20:08:26.908Z,5.10
2023-02-19T20:11:34.718Z,4.80
2023-02-19T20:14:47.206Z,4.20
2023-02-19T20:17:55.407Z,4.80
2023-02-19T20:21:04.696Z,4.10
2023-02-19T20:24:15.094Z,5.50
2023-02-19T20:27:27.068Z,5.20
2023-02-19T20:30:37.493Z,5.10
2023-02-19T20:33:45.719Z,5.90
2023-02-19T20:36:54.170Z,5.10
2023-02-19T20:40:02.340Z,5.50
2023-02-19T20:43:10.724Z,5.70
2023-02-19T20:46:19.001Z,5.90
2023-02-19T20:49:29.449Z,7.90
2023-02-19T20:52:37.512Z,7.00
2023-02-19T20:55:45.840Z,6.40
2023-02-19T20:58:53.880Z,5.40
2023-02-19T21:02:02.585Z,4.90
2023-02-19T21:05:11.657Z,5.80
2023-02-19T21:08:19.639Z,5.40
2023-02-19T21:11:27.782Z,6.10
2023-02-19T21:14:35.787Z,6.20
2023-02-19T21:17:47.873Z,6.10
2023-02-19T21:20:57.093Z,6.20
2023-02-19T21:24:06.469Z,6.50
2023-02-19T21:27:14.293Z,5.30
2023-02-19T21:30:23.080Z,6.00
2023-02-19T21:33:31.241Z,5.50
2023-02-19T21:36:40.066Z,6.00
2023-02-19T21:39:48.373Z,6.60
2023-02-19T21:42:56.536Z,6.80
2023-02-19T21:46:04.425Z,6.40
2023-02-19T21:49:12.894Z,9.70
2023-02-19T21:52:21.092Z,5.80
2023-02-19T21:55:29.469Z,5.70
2023-02-19T21:58:37.393Z,5.90
2023-02-19T22:01:45.921Z,6.10
2023-02-19T22:04:58.205Z,5.70
2023-02-19T22:08:06.160Z,6.10
2023-02-19T22:11:14.429Z,7.10
2023-02-19T22:14:22.532Z,6.60
2023-02-19T22:17:30.569Z,7.00
2023-02-19T22:20:39.611Z,6.30
2023-02-19T22:23:51.078Z,5.80
2023-02-19T22:27:01.757Z,5.30
2023-02-19T22:30:13.726Z,5.90
2023-02-19T22:33:21.656Z,8.00
2023-02-19T22:36:32.269Z,5.80
2023-02-19T22:39:41.700Z,5.90
2023-02-19T22:42:50.371Z,5.90
2023-02-19T22:45:58.496Z,4.50
2023-02-19T22:49:08.716Z,4.90
2023-02-19T22:52:17.660Z,5.20
2023-02-19T22:55:26.418Z,5.10
2023-02-19T22:58:34.938Z,5.80
2023-02-19T23:01:43.036Z,4.40
2023-02-19T23:04:51.267Z,6.10
2023-02-19T23:07:59.895Z,5.40
2023-02-19T23:11:07.881Z,5.20
2023-02-19T23:14:16.642Z,5.90
2023-02-19T23:17:24.822Z,4.60
2023-02-19T23:20:32.775Z,5.70
2023-02-19T23:23:41.560Z,5.10
2023-02-19T23:26:52.891Z,5.90
2023-02-19T23:30:01.155Z,5.50
2023-02-19T23:33:09.267Z,5.80
2023-02-19T23:36:18.180Z,4.80
2023-02-19T23:39:26.698Z,5.60
2023-02-19T23:42:34.507Z,7.60
2023-02-19T23:45:42.762Z,6.30
2023-02-19T23:48:50.978Z,5.30
2023-02-19T23:51:59.454Z,6.00
2023-02-19T23:55:09.506Z,5.00
2023-02-19T23:58:18.152Z,5.50
